Time;durP1;ratioP1;P1;durP2;ratioP2;P2;SDS_P1;SDS_P2;PMS_P1;PMS_P2;Temp;Humidity;BMP_temperature;BMP_pressure;BME280_temperature;BME280_humidity;BME280_pressure;Samples;Min_cycle;Max_cycle;Signal;HPM_P1;HPM_P2
2021/11/02 00:01:59;;;;;;;;;1.00;1.00;;;;;10.30;68.19;99703.16;5059609;28;45630;-96
2021/11/02 00:04:25;;;;;;;;;0.67;0.00;;;;;10.29;68.40;99698.75;5060981;28;47122;-96
2021/11/02 00:06:50;;;;;;;;;1.00;1.00;;;;;10.32;68.97;99705.81;5061268;28;47043;-96
2021/11/02 00:09:20;;;;;;;;;0.33;0.33;;;;;10.35;68.43;99706.81;5046782;28;65788;-96
2021/11/02 00:11:46;;;;;;;;;2.00;1.00;;;;;10.33;68.96;99703.28;5030220;28;45436;-96
2021/11/02 00:14:13;;;;;;;;;0.00;0.00;;;;;10.35;68.41;99692.81;5059903;28;60518;-96
2021/11/02 00:16:39;;;;;;;;;2.00;1.00;;;;;10.34;68.78;99693.63;5042394;28;48108;-95
2021/11/02 00:19:06;;;;;;;;;1.67;1.00;;;;;10.36;69.20;99695.47;5043477;28;45931;-95
2021/11/02 00:21:38;;;;;;;;;1.00;1.00;;;;;10.31;68.64;99683.09;5048465;28;45497;-95
2021/11/02 00:24:27;;;;;;;;;0.67;0.67;;;;;10.38;68.78;99701.66;5034855;28;45306;-95
2021/11/02 00:26:58;;;;;;;;;0.00;0.00;;;;;10.38;68.72;99698.16;5057296;28;46607;-94
2021/11/02 00:29:23;;;;;;;;;0.00;0.00;;;;;10.37;68.84;99694.63;5043799;28;54696;-95
2021/11/02 00:31:49;;;;;;;;;1.00;1.00;;;;;10.36;68.52;99691.97;5043869;28;45470;-96
2021/11/02 00:34:15;;;;;;;;;0.67;0.67;;;;;10.40;69.01;99691.22;5062517;28;45541;-96
2021/11/02 00:36:40;;;;;;;;;0.00;0.00;;;;;10.39;69.24;99690.31;5041211;28;47000;-94
2021/11/02 00:39:06;;;;;;;;;0.33;0.33;;;;;10.36;69.04;99686.72;5066363;28;60676;-95
2021/11/02 00:41:31;;;;;;;;;1.67;1.67;;;;;10.35;68.66;99683.22;5060656;28;45417;-96
2021/11/02 00:43:57;;;;;;;;;0.00;0.00;;;;;10.33;68.72;99681.38;5049883;28;68226;-95
2021/11/02 00:46:34;;;;;;;;;1.67;1.33;;;;;10.28;69.15;99681.25;5078263;27;47082;-96
2021/11/02 00:48:59;;;;;;;;;0.00;0.00;;;;;10.21;68.74;99669.69;5031898;28;45887;-96
2021/11/02 00:51:25;;;;;;;;;2.00;1.00;;;;;10.26;68.59;99678.56;5057954;28;45416;-95
2021/11/02 00:53:51;;;;;;;;;1.00;1.00;;;;;10.26;68.97;99675.06;5056408;28;45314;-96
2021/11/02 00:56:16;;;;;;;;;0.00;0.00;;;;;10.21;69.13;99667.06;5064555;28;66967;-96
2021/11/02 00:58:41;;;;;;;;;0.00;0.00;;;;;10.18;69.63;99661.72;5050426;28;56259;-95
2021/11/02 01:01:08;;;;;;;;;0.67;0.00;;;;;10.24;69.62;99661.91;5068087;28;45390;-95
2021/11/02 01:03:34;;;;;;;;;2.00;0.33;;;;;10.20;69.57;99654.81;5045201;28;58734;-96
2021/11/02 01:05:59;;;;;;;;;0.00;0.00;;;;;10.25;69.17;99662.81;5044766;28;47021;-95
2021/11/02 01:08:25;;;;;;;;;0.00;0.00;;;;;10.21;69.09;99661.81;5055307;27;45343;-95
2021/11/02 01:10:52;;;;;;;;;1.00;1.00;;;;;10.22;69.30;99662.72;5088829;27;45129;-94
2021/11/02 01:13:18;;;;;;;;;4.00;0.00;;;;;10.19;69.15;99668.75;5071618;27;45022;-96
2021/11/02 01:15:43;;;;;;;;;2.00;1.00;;;;;10.20;69.27;99664.41;5071150;27;47172;-96
2021/11/02 01:18:09;;;;;;;;;1.67;0.00;;;;;10.14;69.56;99654.63;5055026;28;65945;-95
2021/11/02 01:20:34;;;;;;;;;0.67;0.00;;;;;10.11;69.62;99657.13;5054388;28;51798;-96
2021/11/02 01:22:59;;;;;;;;;0.00;0.00;;;;;10.11;69.39;99659.75;5043477;28;45336;-96
2021/11/02 01:25:25;;;;;;;;;1.00;1.00;;;;;10.00;69.82;99641.13;5058765;28;70360;-96
2021/11/02 01:27:50;;;;;;;;;2.67;0.67;;;;;10.10;69.58;99655.38;5043233;28;45339;-96
2021/11/02 01:30:16;;;;;;;;;0.67;0.00;;;;;10.05;69.34;99656.13;5060672;27;45382;-95
2021/11/02 01:32:42;;;;;;;;;0.00;0.00;;;;;10.03;70.08;99652.56;5061793;28;45727;-95
2021/11/02 01:35:08;;;;;;;;;2.00;1.00;;;;;10.05;69.60;99656.13;5051061;28;47414;-95
2021/11/02 01:37:34;;;;;;;;;0.00;0.00;;;;;10.03;69.60;99651.66;5052224;28;45332;-96
2021/11/02 01:39:59;;;;;;;;;0.00;0.00;;;;;10.04;69.80;99651.72;5066117;28;45648;-95
2021/11/02 01:42:26;;;;;;;;;1.00;1.00;;;;;10.04;69.82;99663.94;5057756;28;45347;-94
2021/11/02 01:44:53;;;;;;;;;0.00;0.00;;;;;10.02;69.93;99652.53;5046771;28;47085;-95
2021/11/02 01:47:20;;;;;;;;;0.00;0.00;;;;;9.96;69.93;99647.97;5044133;28;45477;-95
2021/11/02 01:49:45;;;;;;;;;1.00;1.00;;;;;9.96;69.99;99650.59;5060598;28;45276;-94
2021/11/02 01:52:11;;;;;;;;;0.00;0.00;;;;;9.94;70.10;99649.69;5060369;28;45297;-95
2021/11/02 01:54:36;;;;;;;;;0.67;0.67;;;;;9.98;70.64;99664.63;5043789;28;56981;-94
2021/11/02 01:57:02;;;;;;;;;0.00;0.00;;;;;9.95;69.71;99646.19;5060449;28;46577;-96
2021/11/02 01:59:29;;;;;;;;;0.00;0.00;;;;;9.97;70.23;99647.16;5043596;28;45437;-95
2021/11/02 02:02:06;;;;;;;;;0.00;0.00;;;;;9.95;69.75;99652.31;5060524;28;45424;-95
2021/11/02 02:04:51;;;;;;;;;1.00;1.00;;;;;10.01;69.76;99656.88;5037038;28;47878;-95
2021/11/02 02:07:37;;;;;;;;;0.00;0.00;;;;;10.02;70.57;99649.91;5075781;28;45368;-95
2021/11/02 02:10:20;;;;;;;;;0.33;0.33;;;;;10.02;70.49;99652.53;5085338;27;45571;-95
2021/11/02 02:12:49;;;;;;;;;0.00;0.00;;;;;10.03;70.36;99654.28;5084784;28;45546;-95
2021/11/02 02:15:27;;;;;;;;;1.00;0.00;;;;;9.99;69.78;99641.94;5084541;28;48054;-95
2021/11/02 02:18:29;;;;;;;;;1.00;1.00;;;;;10.06;70.07;99655.28;5047984;28;45378;-95
2021/11/02 02:21:50;;;;;;;;;0.67;0.67;;;;;10.04;70.31;99651.72;5077615;28;45317;-95
2021/11/02 02:24:37;;;;;;;;;0.00;0.00;;;;;10.04;69.73;99654.34;4999261;28;45534;-95
2021/11/02 02:27:23;;;;;;;;;3.33;1.00;;;;;10.04;69.72;99656.06;5015115;28;47653;-95
2021/11/02 02:29:48;;;;;;;;;0.00;0.00;;;;;9.99;69.84;99653.31;4999345;28;46254;-95
2021/11/02 02:32:18;;;;;;;;;0.00;0.00;;;;;10.01;70.29;99653.34;4983517;28;65334;-95
2021/11/02 02:34:45;;;;;;;;;1.00;1.00;;;;;9.97;70.17;99635.78;4993133;28;45718;-96
2021/11/02 02:37:11;;;;;;;;;1.33;0.33;;;;;9.94;70.01;99637.47;4998743;28;47484;-94
2021/11/02 02:39:36;;;;;;;;;0.00;0.00;;;;;9.94;69.64;99636.56;4998823;28;45359;-95
2021/11/02 02:42:02;;;;;;;;;0.33;0.33;;;;;9.96;70.43;99642.75;4998652;28;58480;-96
2021/11/02 02:44:28;;;;;;;;;1.00;1.00;;;;;9.91;70.14;99637.38;4961955;28;61983;-96
2021/11/02 02:46:53;;;;;;;;;1.33;1.33;;;;;9.90;70.24;99637.31;4983459;28;48395;-95
2021/11/02 02:49:19;;;;;;;;;0.00;0.00;;;;;9.92;69.70;99635.63;5001664;28;69585;-96
2021/11/02 02:51:44;;;;;;;;;0.00;0.00;;;;;9.92;69.92;99641.75;4971835;28;45518;-96
2021/11/02 02:54:12;;;;;;;;;1.00;0.00;;;;;9.95;69.89;99633.97;4986973;28;45502;-96
2021/11/02 02:56:42;;;;;;;;;0.33;0.33;;;;;10.02;70.31;99639.41;4982657;28;47685;-95
2021/11/02 02:59:07;;;;;;;;;2.00;0.67;;;;;10.03;69.81;99634.22;5055586;28;45933;-96
2021/11/02 03:01:33;;;;;;;;;1.00;1.00;;;;;10.06;69.77;99626.44;5039390;28;51434;-96
2021/11/02 03:04:05;;;;;;;;;0.00;0.00;;;;;10.06;69.17;99625.53;5039176;28;45573;-96
2021/11/02 03:06:35;;;;;;;;;0.33;0.33;;;;;10.11;69.54;99628.28;5042431;28;47497;-96
2021/11/02 03:09:01;;;;;;;;;0.00;0.00;;;;;10.08;69.53;99628.19;5060303;28;45323;-96
2021/11/02 03:11:27;;;;;;;;;1.00;0.67;;;;;10.08;69.69;99617.72;5043837;28;45429;-95
2021/11/02 03:13:53;;;;;;;;;4.00;0.00;;;;;10.07;69.71;99616.84;5043622;28;45561;-96
2021/11/02 03:16:23;;;;;;;;;0.33;0.00;;;;;10.12;69.64;99622.22;5058835;28;47100;-95
2021/11/02 03:43:59;;;;;;;;;0.00;0.00;;;;;10.06;70.17;99636.03;5035653;28;45337;-95
2021/11/02 03:54:38;;;;;;;;;1.00;0.67;;;;;10.05;70.21;99627.28;5016894;28;45437;-96
2021/11/02 04:00:06;;;;;;;;;0.00;0.00;;;;;10.17;70.54;99644.22;5041218;28;45409;-95
2021/11/02 04:23:18;;;;;;;;;0.00;0.00;;;;;10.01;70.89;99646.38;5044612;28;45836;-95
2021/11/02 04:33:01;;;;;;;;;0.00;0.00;;;;;9.97;70.77;99647.16;5042038;28;45382;-95
2021/11/02 05:07:41;;;;;;;;;1.00;1.00;;;;;10.16;70.56;99658.16;4945676;28;45346;-94
2021/11/02 05:58:27;;;;;;;;;1.00;1.00;;;;;10.17;70.23;99665.19;4952089;28;46048;-94
2021/11/02 06:01:01;;;;;;;;;0.00;0.00;;;;;10.16;70.06;99666.94;4951093;28;46062;-92
2021/11/02 06:03:48;;;;;;;;;2.00;1.33;;;;;10.12;70.03;99662.44;4996732;28;45276;-95
2021/11/02 06:07:07;;;;;;;;;0.67;0.67;;;;;10.08;69.71;99668.44;4977039;28;45147;-96
2021/11/02 06:09:52;;;;;;;;;2.00;0.00;;;;;10.04;69.81;99664.84;4989550;28;46445;-95
2021/11/02 06:28:52;;;;;;;;;0.00;0.00;;;;;10.09;69.78;99690.31;5060222;28;45469;-95
2021/11/02 06:31:38;;;;;;;;;0.00;0.00;;;;;10.12;69.34;99686.06;5043879;28;47233;-94
2021/11/02 06:45:10;;;;;;;;;1.00;1.00;;;;;10.09;68.71;99699.06;5046014;28;45368;-95
2021/11/02 06:48:22;;;;;;;;;0.00;0.00;;;;;10.11;69.13;99706.97;5042689;28;45396;-95
2021/11/02 06:51:21;;;;;;;;;0.00;0.00;;;;;10.07;68.51;99700.75;5041407;28;45590;-93
2021/11/02 06:57:06;;;;;;;;;0.00;0.00;;;;;9.93;69.21;99705.56;5041795;28;45477;-94
2021/11/02 07:19:41;;;;;;;;;0.00;0.00;;;;;9.89;69.25;99729.91;4924981;28;45435;-94
2021/11/02 08:48:05;;;;;;;;;1.00;1.00;;;;;10.69;67.72;99795.28;5039545;28;45492;-88
2021/11/02 08:50:38;;;;;;;;;2.00;1.67;;;;;10.75;67.67;99799.78;5048692;28;45363;-88
2021/11/02 08:53:04;;;;;;;;;0.00;0.00;;;;;10.80;67.05;99799.09;5017747;28;45859;-88
2021/11/02 08:55:30;;;;;;;;;1.00;1.00;;;;;10.83;66.38;99800.91;5041950;28;53512;-88
2021/11/02 08:57:56;;;;;;;;;2.00;1.00;;;;;10.81;67.25;99794.75;5012246;28;60417;-88
2021/11/02 09:00:22;;;;;;;;;1.67;0.67;;;;;10.71;66.33;99794.47;5030200;28;45660;-88
2021/11/02 09:02:51;;;;;;;;;0.67;0.67;;;;;10.69;65.63;99804.06;5014350;28;66727;-87
2021/11/02 09:05:29;;;;;;;;;1.00;0.00;;;;;10.62;66.35;99807.31;5033789;28;46576;-88
2021/11/02 09:07:55;;;;;;;;;1.00;1.00;;;;;10.58;66.42;99811.59;5033863;28;45521;-88
2021/11/02 09:10:20;;;;;;;;;0.00;0.00;;;;;10.55;66.34;99805.34;5028396;28;45444;-88
2021/11/02 09:12:50;;;;;;;;;0.00;0.00;;;;;10.51;66.69;99807.00;5041101;28;45626;-88
2021/11/02 09:15:15;;;;;;;;;1.00;1.00;;;;;10.50;65.03;99805.19;5047992;28;47654;-89
2021/11/02 09:17:46;;;;;;;;;0.00;0.00;;;;;10.52;66.17;99802.63;5040666;28;45590;-88
2021/11/02 09:20:12;;;;;;;;;1.00;1.00;;;;;10.55;66.24;99801.00;5036634;28;45850;-86
2021/11/02 09:22:37;;;;;;;;;0.33;0.33;;;;;10.53;64.30;99797.44;5042743;28;45708;-87
2021/11/02 09:25:03;;;;;;;;;0.00;0.00;;;;;10.54;65.87;99801.84;5047716;28;45446;-88
2021/11/02 09:27:29;;;;;;;;;1.00;1.00;;;;;10.56;65.88;99796.66;5033768;28;45530;-87
2021/11/02 09:29:56;;;;;;;;;0.00;0.00;;;;;10.58;65.42;99805.44;5050763;28;45458;-87
2021/11/02 09:32:22;;;;;;;;;0.33;0.33;;;;;10.59;66.42;99807.25;5034360;28;45455;-90
2021/11/02 09:34:47;;;;;;;;;0.00;0.00;;;;;10.61;65.94;99814.31;5027419;28;48735;-89
2021/11/02 09:37:20;;;;;;;;;0.00;0.00;;;;;10.59;65.68;99815.97;5013653;28;46496;-89
2021/11/02 09:39:50;;;;;;;;;2.00;1.00;;;;;10.60;64.45;99817.78;5012663;28;45674;-89
2021/11/02 09:42:46;;;;;;;;;1.33;0.33;;;;;10.57;64.62;99811.53;5047620;28;45393;-87
2021/11/02 09:45:48;;;;;;;;;1.00;1.00;;;;;10.75;66.97;99818.16;5040213;28;45657;-88
2021/11/02 09:48:39;;;;;;;;;1.00;1.00;;;;;10.85;65.58;99817.59;5043732;28;45529;-88
2021/11/02 09:51:31;;;;;;;;;0.00;0.00;;;;;10.97;65.79;99817.09;5046419;28;45480;-87
2021/11/02 09:54:22;;;;;;;;;0.67;0.67;;;;;11.05;66.26;99809.44;5051469;28;45367;-91
2021/11/02 09:56:53;;;;;;;;;0.00;0.00;;;;;11.09;65.15;99813.91;5053321;28;47816;-88
2021/11/02 09:59:39;;;;;;;;;0.00;0.00;;;;;11.11;65.15;99821.81;5052070;28;45595;-91
2021/11/02 10:02:08;;;;;;;;;0.67;0.00;;;;;11.14;65.26;99821.91;5055192;28;45465;-89
2021/11/02 10:04:59;;;;;;;;;3.33;1.00;;;;;11.15;64.23;99823.69;5069488;27;45653;-90
2021/11/02 10:07:33;;;;;;;;;3.33;1.00;;;;;11.19;65.87;99820.31;5014276;28;46643;-86
2021/11/02 10:10:14;;;;;;;;;0.67;0.67;;;;;11.24;64.41;99820.44;5046101;28;45457;-86
2021/11/02 10:12:51;;;;;;;;;1.00;1.00;;;;;11.27;62.15;99824.03;5049906;28;45359;-90
2021/11/02 10:15:36;;;;;;;;;1.00;1.00;;;;;11.34;63.68;99827.72;5042317;28;45371;-87
2021/11/02 10:18:12;;;;;;;;;3.00;2.00;;;;;11.37;64.26;99830.44;5049994;28;47093;-86
2021/11/02 10:21:04;;;;;;;;;0.33;0.33;;;;;11.36;64.05;99836.56;5045879;28;45517;-90
2021/11/02 10:23:38;;;;;;;;;0.00;0.00;;;;;11.39;62.88;99838.38;5034277;28;45661;-91
2021/11/02 10:26:19;;;;;;;;;3.00;0.67;;;;;11.39;61.61;99841.88;5048873;28;45708;-90
2021/11/02 10:29:04;;;;;;;;;0.00;0.00;;;;;11.41;63.48;99839.31;5051151;28;47170;-89
2021/11/02 10:31:33;;;;;;;;;1.00;1.00;;;;;11.41;63.95;99849.81;5046360;28;45608;-89
2021/11/02 10:34:18;;;;;;;;;1.00;1.00;;;;;11.41;62.16;99852.44;5043741;28;45461;-89
2021/11/02 10:36:55;;;;;;;;;0.00;0.00;;;;;11.45;63.80;99848.13;5044168;28;45853;-89
2021/11/02 10:39:40;;;;;;;;;0.67;0.67;;;;;11.40;63.28;99840.13;5056910;28;48804;-90
2021/11/02 10:42:20;;;;;;;;;0.00;0.00;;;;;11.58;61.61;99838.84;5016627;28;45433;-88
2021/11/02 10:44:48;;;;;;;;;0.33;0.33;;;;;11.89;62.00;99844.00;5038378;28;45506;-88
2021/11/02 10:47:19;;;;;;;;;1.00;1.00;;;;;12.23;63.11;99850.16;5018163;28;45448;-89
2021/11/02 10:50:03;;;;;;;;;1.00;1.00;;;;;12.67;62.63;99838.00;5014277;28;47227;-89
2021/11/02 10:52:31;;;;;;;;;1.00;1.00;;;;;12.95;61.29;99832.41;5050738;28;46002;-90
2021/11/02 10:55:36;;;;;;;;;0.00;0.00;;;;;13.29;61.66;99841.00;5015114;28;45868;-89
2021/11/02 10:58:01;;;;;;;;;0.00;0.00;;;;;13.23;59.87;99837.34;5040186;28;45767;-90
2021/11/02 11:00:26;;;;;;;;;0.00;0.00;;;;;13.02;59.46;99836.94;5046143;28;47881;-88
2021/11/02 11:02:54;;;;;;;;;0.00;0.00;;;;;12.87;60.13;99826.97;5042607;28;71336;-89
2021/11/02 11:05:19;;;;;;;;;2.67;0.00;;;;;12.73;60.76;99832.84;5018008;28;45574;-91
2021/11/02 11:07:45;;;;;;;;;2.00;0.67;;;;;12.65;59.74;99828.28;5018920;28;45573;-92
2021/11/02 11:10:12;;;;;;;;;0.00;0.00;;;;;12.66;61.23;99828.28;5023805;28;48473;-91
2021/11/02 11:12:55;;;;;;;;;0.00;0.00;;;;;12.65;59.80;99813.38;5024532;28;45629;-90
2021/11/02 11:15:21;;;;;;;;;0.00;0.00;;;;;12.71;61.25;99831.03;5049308;28;45628;-89
2021/11/02 11:18:02;;;;;;;;;1.00;1.00;;;;;12.78;60.63;99824.16;5027408;28;45639;-90
2021/11/02 11:20:28;;;;;;;;;0.00;0.00;;;;;12.77;60.72;99823.28;5032888;28;47527;-89
2021/11/02 11:22:54;;;;;;;;;0.00;0.00;;;;;12.70;60.91;99819.63;5058253;28;51919;-92
2021/11/02 11:25:57;;;;;;;;;0.00;0.00;;;;;12.70;60.41;99822.25;5009022;28;45453;-94
2021/11/02 11:28:23;;;;;;;;;1.00;0.00;;;;;12.70;61.55;99824.91;5045098;28;45622;-91
2021/11/02 11:30:48;;;;;;;;;0.00;0.00;;;;;12.57;60.86;99815.84;5046794;28;45658;-93
2021/11/02 11:33:20;;;;;;;;;0.33;0.33;;;;;12.55;61.25;99817.53;5031783;28;45947;-89
2021/11/02 11:35:46;;;;;;;;;0.00;0.00;;;;;12.61;60.72;99806.25;5050262;28;45433;-91
2021/11/02 11:38:13;;;;;;;;;0.00;0.00;;;;;12.65;60.29;99808.09;5009408;28;45421;-92
2021/11/02 11:40:40;;;;;;;;;2.00;1.00;;;;;12.69;60.46;99809.94;5016936;28;48486;-89
2021/11/02 11:43:06;;;;;;;;;1.00;1.00;;;;;12.72;60.02;99815.28;5032452;28;45797;-90
2021/11/02 11:45:34;;;;;;;;;0.33;0.33;;;;;12.78;59.27;99803.97;5041253;28;45498;-88
2021/11/02 11:48:26;;;;;;;;;2.00;0.00;;;;;12.83;61.21;99810.22;5047627;28;45463;-89
2021/11/02 11:50:51;;;;;;;;;0.00;0.00;;;;;12.88;60.51;99802.44;5031469;28;45683;-88
2021/11/02 11:53:18;;;;;;;;;0.00;0.00;;;;;13.03;59.65;99806.22;5049215;28;70212;-89
2021/11/02 11:55:45;;;;;;;;;0.00;0.00;;;;;13.21;59.87;99812.72;5054126;28;45484;-89
2021/11/02 11:58:14;;;;;;;;;0.00;0.00;;;;;13.34;59.58;99798.94;5031470;28;45538;-89
2021/11/02 12:00:45;;;;;;;;;3.00;1.00;;;;;13.38;58.40;99792.84;5059564;28;45614;-90
2021/11/02 12:03:13;;;;;;;;;0.00;0.00;;;;;13.39;58.56;99797.25;5035454;28;45557;-89
2021/11/02 12:05:46;;;;;;;;;0.00;0.00;;;;;13.38;57.99;99795.47;5054193;28;45497;-90
2021/11/02 12:08:34;;;;;;;;;4.33;0.67;;;;;13.46;58.20;99794.72;5018447;28;45423;-89
2021/11/02 12:11:00;;;;;;;;;0.00;0.00;;;;;13.45;57.84;99796.47;5014094;28;47212;-91
2021/11/02 12:13:26;;;;;;;;;1.00;1.00;;;;;13.35;58.35;99795.41;5046684;28;45375;-89
2021/11/02 12:16:10;;;;;;;;;0.00;0.00;;;;;13.25;58.03;99791.72;5026153;28;45653;-89
2021/11/02 12:18:41;;;;;;;;;0.00;0.00;;;;;13.16;58.50;99781.00;5019518;28;45583;-89
2021/11/02 12:21:07;;;;;;;;;0.67;0.67;;;;;13.23;59.38;99784.63;5041276;28;46604;-90
2021/11/02 12:23:34;;;;;;;;;0.00;0.00;;;;;13.40;57.63;99782.34;5030900;28;45533;-90
2021/11/02 12:26:00;;;;;;;;;0.00;0.00;;;;;13.53;59.18;99778.16;5030516;28;45471;-90
2021/11/02 12:28:29;;;;;;;;;1.00;1.00;;;;;13.72;57.83;99779.41;5028309;28;69711;-90
2021/11/02 12:30:58;;;;;;;;;1.00;1.00;;;;;14.03;56.09;99770.19;5040416;28;47788;-89
2021/11/02 12:33:25;;;;;;;;;2.00;1.00;;;;;14.29;56.88;99773.22;5028223;28;45456;-90
2021/11/02 12:35:52;;;;;;;;;1.00;1.00;;;;;14.40;56.11;99768.13;5055986;28;45276;-90
2021/11/02 12:38:33;;;;;;;;;0.00;0.00;;;;;14.35;57.04;99769.81;5038998;28;45502;-91
2021/11/02 12:40:59;;;;;;;;;1.00;1.00;;;;;14.19;55.73;99766.94;5053997;28;45685;-90
2021/11/02 12:43:26;;;;;;;;;0.00;0.00;;;;;14.06;55.27;99764.97;5050139;28;45494;-89
2021/11/02 12:45:52;;;;;;;;;2.00;1.00;;;;;14.08;56.33;99764.13;5069662;27;45419;-90
2021/11/02 12:48:18;;;;;;;;;0.67;0.67;;;;;14.15;55.16;99761.56;5045116;28;46342;-89
2021/11/02 12:50:44;;;;;;;;;0.00;0.00;;;;;14.10;55.59;99757.97;5028527;28;46398;-89
2021/11/02 12:53:10;;;;;;;;;1.00;1.00;;;;;14.09;55.82;99754.47;5045862;28;45837;-90
2021/11/02 12:55:36;;;;;;;;;0.00;0.00;;;;;14.07;55.81;99749.16;5026908;28;45362;-89
2021/11/02 12:58:08;;;;;;;;;0.67;0.00;;;;;14.01;56.08;99750.81;5045604;28;45544;-89
2021/11/02 13:00:41;;;;;;;;;1.33;0.00;;;;;13.84;56.46;99747.06;5049364;28;46454;-89
2021/11/02 13:03:17;;;;;;;;;1.00;1.00;;;;;13.76;56.92;99751.31;5022329;28;47667;-89
2021/11/02 13:05:43;;;;;;;;;0.00;0.00;;;;;13.73;57.44;99746.91;5049452;28;45334;-89
2021/11/02 13:08:12;;;;;;;;;0.00;0.00;;;;;13.88;58.43;99744.47;5035816;28;45282;-89
2021/11/02 13:10:38;;;;;;;;;1.67;0.00;;;;;14.12;55.82;99738.66;5019380;28;47028;-89
2021/11/02 13:13:07;;;;;;;;;0.67;0.67;;;;;14.34;54.43;99746.00;5008934;28;45659;-89
2021/11/02 13:15:50;;;;;;;;;1.67;0.67;;;;;14.39;53.55;99739.03;5054061;28;45371;-89
2021/11/02 13:18:38;;;;;;;;;1.00;1.00;;;;;14.32;55.54;99747.75;5036942;28;45486;-88
2021/11/02 13:21:29;;;;;;;;;0.00;0.00;;;;;14.24;55.16;99751.16;5038432;28;47558;-89
2021/11/02 13:24:00;;;;;;;;;0.00;0.00;;;;;14.14;54.37;99759.81;5036016;28;45617;-89
2021/11/02 13:26:25;;;;;;;;;0.00;0.00;;;;;13.96;54.99;99754.28;5017703;28;45795;-89
2021/11/02 13:28:51;;;;;;;;;0.00;0.00;;;;;13.85;56.23;99750.59;5034889;28;45511;-92
2021/11/02 13:31:35;;;;;;;;;1.33;0.00;;;;;13.83;55.52;99745.28;5010266;28;48487;-88
2021/11/02 13:34:02;;;;;;;;;2.00;0.00;;;;;13.81;56.95;99746.13;5016877;28;45343;-89
2021/11/02 13:36:28;;;;;;;;;0.00;0.00;;;;;13.72;56.80;99731.03;5044541;28;45694;-88
2021/11/02 13:39:01;;;;;;;;;0.67;0.00;;;;;13.67;57.57;99724.81;5047769;28;45850;-89
2021/11/02 13:41:31;;;;;;;;;0.67;0.67;;;;;13.59;56.73;99712.38;5032328;28;45645;-89
2021/11/02 13:44:04;;;;;;;;;0.00;0.00;;;;;13.61;56.75;99712.41;5026071;28;45498;-89
2021/11/02 13:46:31;;;;;;;;;2.00;0.00;;;;;13.67;56.12;99719.53;5048529;28;45409;-89
2021/11/02 13:48:56;;;;;;;;;0.67;0.67;;;;;13.68;55.66;99716.94;5046919;28;45588;-89
2021/11/02 13:51:24;;;;;;;;;0.00;0.00;;;;;13.65;55.97;99723.91;5030387;28;48824;-89
2021/11/02 13:53:50;;;;;;;;;0.00;0.00;;;;;13.57;55.54;99726.41;5033263;28;45567;-88
2021/11/02 13:56:23;;;;;;;;;0.00;0.00;;;;;13.49;56.17;99720.97;5045499;28;45400;-88
2021/11/02 13:58:50;;;;;;;;;0.00;0.00;;;;;13.43;55.71;99721.75;5052610;28;45688;-89
2021/11/02 14:01:25;;;;;;;;;0.00;0.00;;;;;13.39;57.19;99722.56;5031263;28;46609;-89
2021/11/02 14:04:27;;;;;;;;;1.00;0.00;;;;;13.38;56.52;99718.13;5051297;28;45487;-89
2021/11/02 14:06:54;;;;;;;;;0.00;0.00;;;;;13.33;58.01;99711.91;5047477;28;45400;-90
2021/11/02 14:09:35;;;;;;;;;0.00;0.00;;;;;13.32;57.90;99720.69;5026118;28;45447;-89
2021/11/02 14:12:00;;;;;;;;;0.00;0.00;;;;;13.32;57.43;99721.59;5016972;28;46990;-89
2021/11/02 14:14:35;;;;;;;;;0.00;0.00;;;;;13.41;57.05;99723.47;5031411;28;45457;-92
2021/11/02 14:17:14;;;;;;;;;0.33;0.33;;;;;13.37;56.44;99717.28;5051177;28;45680;-88
2021/11/02 14:19:41;;;;;;;;;0.00;0.00;;;;;13.29;56.59;99713.63;5044653;28;46237;-89
2021/11/02 14:22:14;;;;;;;;;0.00;0.00;;;;;13.25;56.94;99717.94;5031387;28;46647;-89
2021/11/02 14:24:41;;;;;;;;;0.00;0.00;;;;;13.24;58.08;99723.19;5035171;28;45628;-88
2021/11/02 14:27:08;;;;;;;;;2.33;2.33;;;;;13.19;56.75;99715.22;5034057;28;45650;-89
2021/11/02 14:29:53;;;;;;;;;2.33;2.00;;;;;13.18;56.63;99721.31;5029382;28;45392;-89
2021/11/02 14:32:45;;;;;;;;;2.00;1.00;;;;;13.17;56.85;99717.78;5003732;28;47143;-89
2021/11/02 14:35:11;;;;;;;;;0.67;0.67;;;;;13.15;57.63;99711.63;5048438;28;45607;-89
2021/11/02 14:37:53;;;;;;;;;0.00;0.00;;;;;13.16;57.57;99721.31;5039706;28;45567;-89
2021/11/02 14:40:31;;;;;;;;;1.00;1.00;;;;;13.15;56.44;99722.16;5030939;28;45530;-87
2021/11/02 14:42:57;;;;;;;;;1.67;0.00;;;;;13.12;56.70;99715.94;5046472;28;46352;-86
2021/11/02 14:45:42;;;;;;;;;0.00;0.00;;;;;13.10;56.00;99717.66;5031953;28;45400;-90
2021/11/02 14:48:23;;;;;;;;;0.33;0.00;;;;;13.06;55.94;99719.38;5029908;28;45559;-89
2021/11/02 14:50:51;;;;;;;;;1.00;1.00;;;;;13.01;57.56;99718.38;5049885;28;46268;-89
2021/11/02 14:53:18;;;;;;;;;1.00;1.00;;;;;13.03;56.31;99719.28;5046778;28;46396;-90
2021/11/02 14:56:11;;;;;;;;;0.00;0.00;;;;;13.03;56.33;99720.19;5030551;28;45673;-88
2021/11/02 14:58:42;;;;;;;;;3.00;0.67;;;;;13.03;57.82;99721.94;5048349;28;45778;-87
2021/11/02 15:01:26;;;;;;;;;0.00;0.00;;;;;13.03;57.33;99724.56;5050945;28;45609;-87
2021/11/02 15:04:01;;;;;;;;;1.00;1.00;;;;;12.98;56.75;99726.22;5045899;28;46964;-87
2021/11/02 15:06:29;;;;;;;;;1.00;1.00;;;;;12.94;57.47;99720.00;5044228;28;45844;-87
2021/11/02 15:08:55;;;;;;;;;0.67;0.67;;;;;12.90;56.58;99715.53;5033693;28;45369;-88
2021/11/02 15:11:20;;;;;;;;;1.00;1.00;;;;;12.88;57.41;99712.00;5032159;28;45903;-88
2021/11/02 15:13:53;;;;;;;;;1.00;1.00;;;;;12.84;56.84;99714.56;5044405;28;45654;-88
2021/11/02 15:16:18;;;;;;;;;1.00;1.00;;;;;12.81;56.51;99710.97;5052355;28;45486;-88
2021/11/02 15:18:45;;;;;;;;;1.00;1.00;;;;;12.84;57.41;99718.94;5013896;28;45518;-87
2021/11/02 15:21:13;;;;;;;;;5.00;1.00;;;;;12.81;56.92;99706.59;5049543;28;45459;-87
2021/11/02 15:23:46;;;;;;;;;1.00;1.00;;;;;12.82;57.08;99718.91;5046103;28;45489;-87
2021/11/02 15:26:13;;;;;;;;;0.67;0.67;;;;;12.80;57.51;99709.22;5026999;28;45626;-88
2021/11/02 15:28:43;;;;;;;;;1.00;0.67;;;;;12.83;58.26;99706.66;5041548;28;45503;-87
2021/11/02 15:31:08;;;;;;;;;0.00;0.00;;;;;12.82;58.22;99710.13;5050372;28;45898;-88
2021/11/02 15:33:34;;;;;;;;;0.00;0.00;;;;;12.82;59.32;99710.13;5047872;28;53017;-90
2021/11/02 15:36:10;;;;;;;;;1.00;1.00;;;;;12.81;59.74;99703.06;5012805;28;45873;-87
2021/11/02 15:38:36;;;;;;;;;2.33;0.00;;;;;12.77;58.74;99701.25;5026770;28;45452;-89
2021/11/02 15:41:16;;;;;;;;;0.00;0.00;;;;;12.73;59.57;99700.31;5032947;28;67644;-87
2021/11/02 15:43:56;;;;;;;;;1.00;1.00;;;;;12.70;58.85;99705.53;5025341;28;48674;-88
2021/11/02 15:46:23;;;;;;;;;1.00;1.00;;;;;12.67;58.33;99700.19;5018920;28;47049;-89
2021/11/02 15:48:52;;;;;;;;;2.33;0.67;;;;;12.61;59.35;99699.19;5050312;28;45485;-89
2021/11/02 15:51:18;;;;;;;;;0.33;0.33;;;;;12.58;57.92;99699.13;5030675;28;45478;-88
2021/11/02 15:53:43;;;;;;;;;0.00;0.00;;;;;12.56;58.14;99697.31;5031759;28;46334;-88
2021/11/02 15:56:08;;;;;;;;;1.00;1.00;;;;;12.54;59.30;99694.69;5013966;28;46628;-89
2021/11/02 15:58:34;;;;;;;;;2.00;1.00;;;;;12.54;59.57;99696.41;5050315;28;60508;-88
2021/11/02 16:00:59;;;;;;;;;1.00;1.00;;;;;12.53;60.72;99698.16;5054019;28;45679;-88
2021/11/02 16:03:32;;;;;;;;;1.33;1.00;;;;;12.49;60.43;99697.22;5049188;28;74328;-89
2021/11/02 16:05:57;;;;;;;;;1.00;1.00;;;;;12.45;59.60;99694.47;5021657;28;45701;-89
2021/11/02 16:08:23;;;;;;;;;1.00;1.00;;;;;12.39;59.34;99687.34;5031848;28;45601;-89
2021/11/02 16:10:49;;;;;;;;;1.67;1.00;;;;;12.34;59.61;99691.63;5036806;28;45544;-88
2021/11/02 16:13:14;;;;;;;;;0.33;0.33;;;;;12.25;60.07;99681.78;5054084;28;46520;-89
2021/11/02 16:15:40;;;;;;;;;0.00;0.00;;;;;12.21;59.46;99690.47;5039287;28;45479;-88
2021/11/02 16:18:22;;;;;;;;;1.00;0.00;;;;;12.19;60.08;99685.16;5018459;28;45429;-88
2021/11/02 16:20:47;;;;;;;;;0.33;0.00;;;;;12.12;60.71;99677.97;5037893;28;45526;-88
2021/11/02 16:23:12;;;;;;;;;1.67;1.00;;;;;12.10;60.56;99690.22;5019195;28;61416;-88
2021/11/02 16:25:58;;;;;;;;;1.33;0.00;;;;;12.05;60.42;99679.59;5056365;28;45223;-88
2021/11/02 16:28:28;;;;;;;;;1.00;0.00;;;;;12.01;61.98;99678.63;5057747;28;45351;-88
2021/11/02 16:30:56;;;;;;;;;3.00;2.00;;;;;11.99;61.29;99687.34;5039473;28;45607;-88
2021/11/02 16:33:45;;;;;;;;;1.00;1.00;;;;;11.96;60.24;99678.53;5034824;28;46527;-88
2021/11/02 16:36:24;;;;;;;;;0.67;0.67;;;;;11.92;60.59;99681.06;5034994;28;45508;-88
2021/11/02 16:38:56;;;;;;;;;1.00;1.00;;;;;11.93;61.88;99680.22;5035607;28;51888;-88